Chihuahua, Mexico

6:39 AM MDT on September 01, 2015 (GMT -0600)
Gen Div P A Roberto Fierro | | Change Station
CLOSE
Current Station
Airport
Location: Chihuahua,
Elevation: 4462 ft
Nearby Weather Stations

Elev 4462 ft 28.70 °N, 105.96 °W | Updated 56 minutes ago

Scattered Clouds
Scattered Clouds
59 °F
Feels Like 59 °F
N
8
Wind Variable Wind from South

Today
High -- | Low -- °F
--% Chance of Precip.
Yesterday
High -- | Low -- °F
Precip. -- in
6:41 AM 7:25 PM
Waning Gibbous, 89% visible
Pressure 29.83 in
Visibility 10.0 miles
Clouds Scattered Clouds 20000 ft
Dew Point 36 °F
Humidity 42%
Rainfall 0.00 in
Snow Depth Not available.
UV 0 out of 12
Pollen Not available.
Air Quality Not available.
Flu Activity Not available.
METAR MMCU 011143Z 18007KT 10SM SCT200 15/02 A3012 RMK SLP100 5//// 903 8/001 HZY
Pressure 29.83 in
Visibility 10.0 miles
Clouds Scattered Clouds 20000 ft
Dew Point 36 °F
Humidity 42%
Rainfall 0.00 in
Snow Depth Not available.
UV 0 out of 12
Pollen Not available.
Air Quality Not available.
Flu Activity Not available.
METAR MMCU 011143Z 18007KT 10SM SCT200 15/02 A3012 RMK SLP100 5//// 903 8/001 HZY

10-Day Weather Forecast

×

Almanac

Astronomy

Sep. 01, 2015 Rise Set
Actual Time
Civil Twilight
Nautical Twilight
Astronomical Twilight
Moon
Length of Visible Light
Length of Day
Tomorrow will be .
, % of the Moon is Illuminated

Today's Extremes

Country Highs Country Lows

Community

WunderPhotos

Upload Photos

1,851,510 photos uploaded!

WunderBlogs® & News

Nearby

Air Quality

  Air Quality AQ Index Pollutant
Not available.

Snow Depth

Station Depth Elevation

Earthquake Activity

City Distance Mag. Time & Date
Minimum magnitude displayed is 2.5.

Coastal Water Temperatures

Place Temperature

Stations

Nearby Weather Stations

Station Location Temp. Windchill Dew Point Humidity Wind Precip. Elev Updated Type